Time;durP1;ratioP1;P1;durP2;ratioP2;P2;SDS_P1;SDS_P2;PMS_P1;PMS_P2;Temp;Humidity;BMP_temperature;BMP_pressure;BME280_temperature;BME280_humidity;BME280_pressure;Samples;Min_cycle;Max_cycle;Signal;HPM_P1;HPM_P2
2022/06/12 00:01:26;;;;;;;5.20;3.93;;;20.80;68.70;;;;;;4969271;28;22185;-42
2022/06/12 00:03:54;;;;;;;4.60;4.20;;;20.80;68.90;;;;;;4986191;28;20469;-42
2022/06/12 00:06:22;;;;;;;4.17;3.77;;;20.80;69.00;;;;;;4983402;28;20465;-42
2022/06/12 00:08:49;;;;;;;4.63;4.23;;;20.80;69.20;;;;;;4986499;28;20901;-42
2022/06/12 00:11:24;;;;;;;7.03;5.40;;;20.70;69.40;;;;;;4987665;28;20457;-42
2022/06/12 00:13:56;;;;;;;7.10;4.63;;;20.70;69.50;;;;;;4985287;28;20495;-41
2022/06/12 00:16:24;;;;;;;4.67;4.10;;;20.70;69.60;;;;;;4985193;28;20542;-41
2022/06/12 00:18:51;;;;;;;4.90;4.43;;;20.70;69.70;;;;;;4984627;28;20476;-41
2022/06/12 00:21:19;;;;;;;5.00;4.40;;;20.60;69.70;;;;;;4981454;28;20493;-42
2022/06/12 00:23:56;;;;;;;6.33;4.53;;;20.60;69.90;;;;;;4980739;28;20465;-42
2022/06/12 00:26:45;;;;;;;3.80;3.50;;;20.60;70.00;;;;;;4981911;28;20461;-42
2022/06/12 00:29:21;;;;;;;5.37;4.60;;;20.60;70.00;;;;;;4980957;28;20902;-42
2022/06/12 00:31:53;;;;;;;4.87;3.57;;;20.60;70.00;;;;;;4981230;28;21004;-42
2022/06/12 00:34:26;;;;;;;4.80;4.37;;;20.50;70.00;;;;;;4987605;28;20966;-42
2022/06/12 00:36:54;;;;;;;4.40;4.00;;;20.50;70.10;;;;;;4968342;28;20875;-42
2022/06/12 00:39:21;;;;;;;4.80;3.73;;;20.50;70.10;;;;;;4991213;28;20920;-42
2022/06/12 00:41:51;;;;;;;4.17;3.77;;;20.40;70.30;;;;;;4990721;28;20465;-42
2022/06/12 00:44:23;;;;;;;4.00;3.27;;;20.40;70.30;;;;;;4982770;28;20535;-42
2022/06/12 00:46:52;;;;;;;4.10;3.70;;;20.40;70.30;;;;;;4989770;28;20504;-42
2022/06/12 00:49:26;;;;;;;4.53;3.80;;;20.40;70.30;;;;;;4989332;28;20511;-42
2022/06/12 00:52:09;;;;;;;3.97;3.30;;;20.30;70.30;;;;;;4984457;28;21012;-42
2022/06/12 00:54:39;;;;;;;5.63;4.07;;;20.30;70.30;;;;;;4988826;28;20881;-42
2022/06/12 00:57:08;;;;;;;4.53;3.63;;;20.30;70.50;;;;;;4986995;28;20461;-41
2022/06/12 00:59:51;;;;;;;4.53;3.37;;;20.30;70.50;;;;;;4973983;28;20834;-42
2022/06/12 01:02:23;;;;;;;3.60;3.30;;;20.20;70.50;;;;;;4986803;28;20548;-42
2022/06/12 01:07:39;;;;;;;3.50;3.20;;;20.20;70.60;;;;;;4988171;28;20600;-42
2022/06/12 01:10:11;;;;;;;5.90;3.43;;;20.20;70.60;;;;;;4988344;28;20518;-42
2022/06/12 01:12:48;;;;;;;3.30;3.00;;;20.10;70.60;;;;;;4989090;28;20469;-42
2022/06/12 01:15:29;;;;;;;3.83;2.93;;;20.10;70.70;;;;;;4987310;28;20457;-42
2022/06/12 01:17:58;;;;;;;3.37;3.07;;;20.10;70.60;;;;;;4982052;28;20886;-42
2022/06/12 01:20:32;;;;;;;3.80;2.97;;;20.10;70.70;;;;;;4985821;28;20945;-42
2022/06/12 01:23:11;;;;;;;3.63;3.00;;;20.10;70.80;;;;;;4989212;28;20476;-41
2022/06/12 01:26:00;;;;;;;5.03;3.50;;;20.10;70.70;;;;;;4989634;28;20469;-41
2022/06/12 01:28:48;;;;;;;5.30;3.30;;;20.10;70.50;;;;;;4987805;28;20497;-42
2022/06/12 01:31:28;;;;;;;4.47;2.70;;;20.00;70.40;;;;;;4971441;28;20995;-41
2022/06/12 01:34:08;;;;;;;3.27;2.63;;;20.00;70.50;;;;;;4986922;28;20469;-42
2022/06/12 01:36:46;;;;;;;3.47;3.17;;;19.90;70.80;;;;;;4983141;28;20461;-42
2022/06/12 01:39:43;;;;;;;2.83;2.63;;;19.90;70.90;;;;;;4969561;28;20472;-42
2022/06/12 01:42:39;;;;;;;3.60;3.30;;;19.90;70.90;;;;;;4985838;28;20473;-42
2022/06/12 01:45:19;;;;;;;4.40;4.00;;;19.90;70.90;;;;;;4987363;28;20479;-42
2022/06/12 01:48:12;;;;;;;4.40;3.67;;;19.80;70.70;;;;;;4987624;28;20500;-42
2022/06/12 01:50:51;;;;;;;6.57;3.20;;;19.80;70.70;;;;;;4986958;28;20458;-41
2022/06/12 01:53:36;;;;;;;6.53;3.63;;;19.70;70.80;;;;;;4986608;28;20548;-41
2022/06/12 01:56:30;;;;;;;5.90;5.40;;;19.70;70.80;;;;;;4989129;28;20966;-42
2022/06/12 01:59:38;;;;;;;6.47;5.77;;;19.70;70.60;;;;;;4986282;28;20479;-42
2022/06/12 02:02:25;;;;;;;4.60;4.20;;;19.70;70.60;;;;;;4985978;28;20468;-42
2022/06/12 02:04:55;;;;;;;5.20;4.70;;;19.70;70.80;;;;;;4985336;28;20850;-42
2022/06/12 02:07:25;;;;;;;4.73;4.10;;;19.60;70.70;;;;;;4970940;28;20473;-42
2022/06/12 02:10:04;;;;;;;9.10;5.33;;;19.60;70.90;;;;;;4985707;28;20549;-42
2022/06/12 02:15:31;;;;;;;5.20;4.50;;;19.60;70.80;;;;;;4985192;28;20457;-42
2022/06/12 02:18:20;;;;;;;6.60;4.57;;;19.60;70.60;;;;;;4985736;28;20460;-42
2022/06/12 02:20:53;;;;;;;5.27;4.50;;;19.60;70.60;;;;;;4988331;28;20838;-42
2022/06/12 02:23:29;;;;;;;4.57;3.90;;;19.60;70.70;;;;;;4984753;28;20468;-42
2022/06/12 02:25:57;;;;;;;5.23;3.70;;;19.60;70.90;;;;;;4986684;28;20474;-42
2022/06/12 02:28:34;;;;;;;4.03;3.57;;;19.50;71.00;;;;;;4969031;28;20481;-42
2022/06/12 02:31:07;;;;;;;3.67;3.37;;;19.50;71.10;;;;;;4969747;28;20959;-42
2022/06/12 02:33:41;;;;;;;5.20;3.03;;;19.50;71.20;;;;;;4987240;28;20461;-42
2022/06/12 02:36:22;;;;;;;3.60;3.30;;;19.50;71.30;;;;;;4987718;28;20457;-42
2022/06/12 02:38:57;;;;;;;7.13;3.77;;;19.40;71.30;;;;;;4971701;28;20549;-42
2022/06/12 02:41:33;;;;;;;5.70;3.20;;;19.40;71.30;;;;;;4988915;28;20880;-42
2022/06/12 02:44:08;;;;;;;4.90;3.10;;;19.40;71.30;;;;;;4987686;28;20517;-43
2022/06/12 02:46:52;;;;;;;3.50;3.07;;;19.40;71.20;;;;;;4988104;28;20986;-43
2022/06/12 02:49:19;;;;;;;3.10;2.80;;;19.40;71.10;;;;;;4987990;28;20497;-46
2022/06/12 02:51:59;;;;;;;3.00;2.70;;;19.30;70.90;;;;;;4995178;28;20468;-46
2022/06/12 02:54:52;;;;;;;3.80;2.80;;;19.30;70.80;;;;;;4993224;28;20541;-46
2022/06/12 02:57:27;;;;;;;4.00;3.00;;;19.30;70.90;;;;;;4976937;28;20484;-46
2022/06/12 03:00:07;;;;;;;4.43;2.77;;;19.20;71.30;;;;;;4976283;28;20524;-46
2022/06/12 03:02:42;;;;;;;2.90;2.70;;;19.20;71.20;;;;;;4977605;28;20472;-46
2022/06/12 03:05:09;;;;;;;5.10;3.40;;;19.10;71.50;;;;;;4993230;28;20808;-46
2022/06/12 03:07:36;;;;;;;3.20;2.73;;;19.10;71.60;;;;;;4993727;28;20469;-46
2022/06/12 03:10:08;;;;;;;4.70;3.17;;;19.10;71.70;;;;;;4977249;28;21028;-46
2022/06/12 03:12:35;;;;;;;4.10;3.00;;;19.10;71.50;;;;;;4976562;28;20925;-46
2022/06/12 03:15:05;;;;;;;3.50;2.60;;;19.00;71.60;;;;;;4977307;28;20469;-46
2022/06/12 03:17:32;;;;;;;4.53;4.00;;;19.00;71.80;;;;;;4993952;28;20519;-46
2022/06/12 03:20:00;;;;;;;3.67;2.90;;;19.00;71.90;;;;;;4994366;28;21939;-46
2022/06/12 03:22:32;;;;;;;2.63;2.27;;;18.90;71.90;;;;;;4993450;28;20473;-46
2022/06/12 03:25:18;;;;;;;4.57;2.70;;;18.90;72.20;;;;;;4993384;28;20464;-46
2022/06/12 03:28:26;;;;;;;4.03;2.97;;;18.90;72.30;;;;;;4992617;28;20479;-46
2022/06/12 03:31:03;;;;;;;3.77;2.90;;;18.80;72.40;;;;;;4991200;28;20508;-46
2022/06/12 03:33:44;;;;;;;3.13;2.83;;;18.80;72.50;;;;;;4959954;28;21223;-46
2022/06/12 03:36:37;;;;;;;2.73;2.33;;;18.80;72.50;;;;;;4977683;28;20555;-46
2022/06/12 03:39:16;;;;;;;8.03;2.80;;;18.80;72.70;;;;;;4955733;28;20479;-46
2022/06/12 03:42:09;;;;;;;4.60;3.27;;;18.80;72.50;;;;;;4993684;28;20471;-46
2022/06/12 03:44:56;;;;;;;4.40;2.83;;;18.80;72.60;;;;;;4994343;28;20600;-46
2022/06/12 03:47:32;;;;;;;5.50;2.93;;;18.80;72.70;;;;;;4990867;28;20457;-46
2022/06/12 03:50:11;;;;;;;3.50;3.10;;;18.80;72.60;;;;;;4993401;28;20489;-46
2022/06/12 03:53:28;;;;;;;3.30;3.00;;;18.70;72.80;;;;;;4994520;28;20461;-46
2022/06/12 03:59:01;;;;;;;3.00;2.80;;;18.70;73.00;;;;;;4965459;28;20964;-46
2022/06/12 04:01:30;;;;;;;2.77;2.53;;;18.70;73.20;;;;;;4992190;28;20481;-46
2022/06/12 04:03:58;;;;;;;3.40;3.10;;;18.70;73.30;;;;;;4978006;28;20459;-46
2022/06/12 04:06:29;;;;;;;3.43;2.60;;;18.70;73.40;;;;;;4975238;28;20463;-46
2022/06/12 04:09:01;;;;;;;4.27;2.73;;;18.70;73.50;;;;;;4991710;28;20931;-46
2022/06/12 04:11:30;;;;;;;3.97;2.90;;;18.80;73.50;;;;;;4993622;28;20461;-46
2022/06/12 04:13:59;;;;;;;4.13;2.90;;;18.80;73.60;;;;;;4997736;28;20462;-46
2022/06/12 04:16:47;;;;;;;3.73;2.37;;;18.80;73.50;;;;;;4997010;28;20455;-46
2022/06/12 04:19:18;;;;;;;8.93;3.20;;;18.70;73.70;;;;;;4981405;28;20884;-46
2022/06/12 04:21:51;;;;;;;3.20;2.83;;;18.70;73.80;;;;;;4979897;28;20476;-46
2022/06/12 04:24:31;;;;;;;4.30;3.00;;;18.80;73.80;;;;;;4995313;28;20457;-46
2022/06/12 04:27:04;;;;;;;5.13;3.27;;;18.80;73.80;;;;;;4996057;28;20499;-46
2022/06/12 04:29:36;;;;;;;3.60;2.73;;;18.80;73.70;;;;;;4981221;28;20484;-46
2022/06/12 04:32:05;;;;;;;3.40;2.90;;;18.80;73.60;;;;;;4981730;28;20463;-46
2022/06/12 04:34:36;;;;;;;2.83;2.63;;;18.80;73.70;;;;;;4980162;28;20576;-46
2022/06/12 04:37:25;;;;;;;4.87;3.30;;;18.90;73.70;;;;;;4976796;28;20468;-46
2022/06/12 04:39:53;;;;;;;7.10;3.27;;;18.90;73.70;;;;;;4977599;28;20982;-46
2022/06/12 04:42:22;;;;;;;4.27;3.83;;;18.90;73.70;;;;;;4996776;28;20469;-46
2022/06/12 04:44:50;;;;;;;4.77;3.07;;;18.90;73.90;;;;;;4996393;28;20500;-46
2022/06/12 04:47:21;;;;;;;3.73;3.33;;;19.00;73.90;;;;;;4977112;28;20464;-46
2022/06/12 04:49:49;;;;;;;4.90;3.30;;;19.00;73.90;;;;;;4996040;28;20499;-46
2022/06/12 04:52:16;;;;;;;4.57;2.90;;;19.00;74.00;;;;;;4998291;28;20471;-46
2022/06/12 04:54:45;;;;;;;5.30;2.90;;;19.00;74.10;;;;;;4996685;28;20479;-46
2022/06/12 04:57:14;;;;;;;3.40;2.47;;;19.10;74.00;;;;;;4977303;28;20465;-46
2022/06/12 04:59:41;;;;;;;5.97;2.70;;;19.20;73.90;;;;;;4996656;28;21036;-46
2022/06/12 05:02:08;;;;;;;3.10;2.13;;;19.30;73.50;;;;;;4975897;28;20493;-46
2022/06/12 05:04:36;;;;;;;4.67;2.60;;;19.40;73.30;;;;;;4994959;28;20461;-46
2022/06/12 05:07:05;;;;;;;4.37;2.83;;;19.40;73.30;;;;;;4996884;28;20864;-46
2022/06/12 05:09:35;;;;;;;3.50;2.40;;;19.50;73.10;;;;;;4995776;28;20495;-46
2022/06/12 05:12:02;;;;;;;5.90;2.60;;;19.60;73.20;;;;;;4997067;28;20465;-46
2022/06/12 05:14:29;;;;;;;3.10;2.40;;;19.60;73.10;;;;;;4996244;28;21286;-46
2022/06/12 05:17:03;;;;;;;5.40;2.03;;;19.60;73.10;;;;;;4975962;28;20461;-46
2022/06/12 05:19:33;;;;;;;2.90;2.10;;;19.70;73.30;;;;;;4997972;28;20491;-47
2022/06/12 05:22:01;;;;;;;3.50;2.43;;;19.70;73.10;;;;;;4980230;28;20560;-46
2022/06/12 05:24:29;;;;;;;7.33;2.47;;;19.80;73.00;;;;;;4995217;28;20475;-47
2022/06/12 05:26:56;;;;;;;5.17;2.63;;;19.90;73.10;;;;;;4993032;28;20471;-47
2022/06/12 05:29:27;;;;;;;4.17;2.37;;;19.90;73.00;;;;;;4993529;28;20527;-45
2022/06/12 05:31:54;;;;;;;3.60;2.50;;;20.00;72.60;;;;;;4991549;28;20493;-47
2022/06/12 05:34:22;;;;;;;3.07;2.10;;;20.10;72.30;;;;;;4996082;28;20465;-47
2022/06/12 05:36:50;;;;;;;2.60;2.40;;;20.10;71.70;;;;;;4991295;28;20476;-47
2022/06/12 05:39:18;;;;;;;7.73;3.60;;;20.20;71.90;;;;;;4973554;28;20493;-46
2022/06/12 05:41:46;;;;;;;7.40;2.73;;;20.20;71.50;;;;;;4979423;28;20497;-46
2022/06/12 05:44:13;;;;;;;3.03;2.40;;;20.30;71.20;;;;;;4996451;28;20492;-47
2022/06/12 05:46:41;;;;;;;2.60;2.40;;;20.40;71.10;;;;;;4996065;28;20472;-47
2022/06/12 05:49:08;;;;;;;3.40;2.70;;;20.40;71.20;;;;;;4978267;28;20492;-47
2022/06/12 05:51:34;;;;;;;3.47;2.50;;;20.50;71.00;;;;;;4990963;28;20548;-46
2022/06/12 05:54:10;;;;;;;3.93;2.93;;;20.50;71.10;;;;;;4979588;28;20492;-47
2022/06/12 05:56:38;;;;;;;4.13;2.40;;;20.60;70.70;;;;;;4991875;28;20493;-46
2022/06/12 05:59:05;;;;;;;4.20;2.60;;;20.70;70.20;;;;;;4977705;28;20504;-46
2022/06/12 06:01:33;;;;;;;4.97;2.40;;;20.70;70.00;;;;;;4980069;28;20882;-45
2022/06/12 06:03:59;;;;;;;4.83;2.73;;;20.80;70.00;;;;;;4977289;28;20475;-45
2022/06/12 06:06:30;;;;;;;3.53;2.50;;;20.80;69.60;;;;;;4997203;28;20532;-46
2022/06/12 06:09:02;;;;;;;3.00;2.30;;;20.90;69.40;;;;;;4989871;28;20492;-46
2022/06/12 06:11:29;;;;;;;2.67;2.47;;;20.90;69.00;;;;;;4976035;28;20457;-46
2022/06/12 06:13:56;;;;;;;2.90;2.40;;;21.00;69.20;;;;;;4979125;28;20524;-46
2022/06/12 06:16:23;;;;;;;4.73;2.57;;;21.00;68.50;;;;;;4996787;28;21228;-46
2022/06/12 06:18:50;;;;;;;3.33;2.40;;;21.10;67.90;;;;;;4992921;28;20456;-46
2022/06/12 06:21:18;;;;;;;2.70;2.30;;;21.20;68.00;;;;;;4992178;28;20526;-45
2022/06/12 06:23:47;;;;;;;2.57;2.37;;;21.30;67.40;;;;;;4977996;28;20532;-46
2022/06/12 06:26:14;;;;;;;6.93;2.40;;;21.30;67.30;;;;;;4977582;28;20476;-46
2022/06/12 06:28:42;;;;;;;5.30;2.80;;;21.40;67.60;;;;;;4978157;28;20480;-46
2022/06/12 06:31:10;;;;;;;4.20;2.60;;;21.50;67.20;;;;;;4987512;28;20461;-46
2022/06/12 06:33:37;;;;;;;7.23;2.80;;;21.60;67.70;;;;;;4995107;28;20818;-46
2022/06/12 06:36:08;;;;;;;5.43;2.07;;;21.60;67.10;;;;;;4994258;28;20453;-45
2022/06/12 06:38:35;;;;;;;4.03;3.03;;;21.80;66.60;;;;;;4990549;28;20528;-46
2022/06/12 06:41:02;;;;;;;5.17;3.50;;;21.90;66.10;;;;;;4994458;28;20531;-47
2022/06/12 06:43:29;;;;;;;6.10;2.53;;;21.90;65.70;;;;;;4995858;28;21029;-47
2022/06/12 06:46:14;;;;;;;6.37;3.00;;;21.90;65.60;;;;;;4993268;28;20465;-47
2022/06/12 06:48:41;;;;;;;3.50;2.70;;;21.90;66.10;;;;;;4991349;28;20472;-47
2022/06/12 06:51:08;;;;;;;5.70;2.57;;;22.00;66.60;;;;;;4993480;28;20464;-47
2022/06/12 06:53:35;;;;;;;6.37;2.97;;;22.10;66.30;;;;;;4992349;28;20463;-47
2022/06/12 06:56:02;;;;;;;5.53;2.43;;;22.30;65.30;;;;;;4979010;28;21029;-47
2022/06/12 06:58:32;;;;;;;5.10;2.57;;;22.40;65.10;;;;;;4977814;28;20532;-47
2022/06/12 07:00:59;;;;;;;4.60;3.17;;;22.50;64.70;;;;;;4993815;28;20555;-47
2022/06/12 07:03:26;;;;;;;3.53;2.07;;;22.60;64.70;;;;;;4994792;28;20477;-48
2022/06/12 07:05:54;;;;;;;9.03;3.60;;;22.70;64.70;;;;;;4995883;28;20985;-47
2022/06/12 07:08:24;;;;;;;5.93;2.30;;;22.90;63.60;;;;;;4992503;28;20509;-47
2022/06/12 07:10:52;;;;;;;3.83;2.47;;;23.00;63.40;;;;;;4994897;28;20488;-47
2022/06/12 07:13:20;;;;;;;4.57;2.60;;;23.10;62.40;;;;;;4978335;28;20588;-48
2022/06/12 07:15:48;;;;;;;4.53;2.43;;;23.20;62.10;;;;;;4994850;28;20457;-47
2022/06/12 07:18:16;;;;;;;3.97;2.73;;;23.30;62.30;;;;;;4993089;28;20463;-48
2022/06/12 07:20:48;;;;;;;4.70;2.20;;;23.50;62.00;;;;;;4995551;28;20511;-48
2022/06/12 07:23:18;;;;;;;3.37;2.50;;;23.60;61.70;;;;;;4991995;28;20488;-48
2022/06/12 07:25:50;;;;;;;4.23;2.77;;;23.80;61.80;;;;;;4994630;28;20901;-47
2022/06/12 07:28:17;;;;;;;2.80;2.60;;;24.10;60.50;;;;;;4992896;28;20475;-47
2022/06/12 07:30:45;;;;;;;4.17;2.33;;;24.30;59.50;;;;;;4991564;28;20484;-47
2022/06/12 07:33:13;;;;;;;3.73;2.57;;;24.40;59.00;;;;;;4989993;28;20492;-47
2022/06/12 07:35:41;;;;;;;5.67;1.83;;;24.40;59.30;;;;;;4993227;28;20532;-47
2022/06/12 07:38:09;;;;;;;4.20;3.30;;;24.60;58.60;;;;;;4972528;28;20464;-44
2022/06/12 07:40:43;;;;;;;3.67;2.67;;;24.70;58.20;;;;;;4986647;28;20464;-44
2022/06/12 07:43:11;;;;;;;3.40;2.20;;;24.80;58.10;;;;;;4985414;28;20468;-45
2022/06/12 07:45:39;;;;;;;4.10;2.57;;;25.00;57.70;;;;;;4985971;28;20519;-46
2022/06/12 07:48:07;;;;;;;5.07;2.70;;;25.10;57.30;;;;;;4973652;28;20467;-46
2022/06/12 07:50:37;;;;;;;3.63;2.80;;;25.20;57.10;;;;;;4974932;28;20742;-45
2022/06/12 07:53:04;;;;;;;3.20;2.80;;;25.40;56.70;;;;;;4989885;28;20905;-46
2022/06/12 07:55:32;;;;;;;7.27;3.13;;;25.60;55.80;;;;;;4990281;28;20460;-46
2022/06/12 07:57:59;;;;;;;4.77;2.70;;;25.70;55.50;;;;;;4992141;28;20452;-45
2022/06/12 08:00:26;;;;;;;3.10;2.80;;;25.90;55.80;;;;;;4995115;28;20570;-48
2022/06/12 08:02:53;;;;;;;6.03;2.70;;;26.00;54.40;;;;;;4987836;28;20506;-48
2022/06/12 08:05:21;;;;;;;3.30;2.17;;;26.10;54.70;;;;;;4973735;28;20460;-45
2022/06/12 08:07:48;;;;;;;4.90;2.70;;;26.10;54.40;;;;;;4991538;28;20476;-44
2022/06/12 08:10:15;;;;;;;5.67;2.77;;;26.20;54.30;;;;;;4974033;28;20575;-44
2022/06/12 08:12:44;;;;;;;5.23;2.60;;;26.20;54.20;;;;;;4999436;28;20546;-47
2022/06/12 08:15:18;;;;;;;4.30;2.53;;;26.30;54.10;;;;;;4994666;28;20900;-44
2022/06/12 08:17:45;;;;;;;5.87;2.83;;;26.40;54.00;;;;;;4988433;28;20496;-44
2022/06/12 08:20:24;;;;;;;4.30;2.63;;;26.50;53.70;;;;;;4991801;28;20456;-44
2022/06/12 08:23:26;;;;;;;3.40;1.80;;;26.60;53.50;;;;;;4976779;28;20953;-46
2022/06/12 08:26:10;;;;;;;8.60;2.77;;;26.80;52.90;;;;;;4987147;28;20507;-46
2022/06/12 08:28:43;;;;;;;2.93;2.03;;;26.90;53.00;;;;;;4992176;28;20461;-45
2022/06/12 08:31:14;;;;;;;4.10;2.40;;;26.90;52.50;;;;;;4969325;28;21053;-45
2022/06/12 08:33:44;;;;;;;4.43;2.27;;;27.00;51.20;;;;;;4987944;28;20572;-45
2022/06/12 08:36:13;;;;;;;2.83;2.40;;;27.00;51.70;;;;;;4987930;28;20547;-45
2022/06/12 08:38:40;;;;;;;4.97;2.00;;;27.00;51.80;;;;;;4993492;28;20460;-45
2022/06/12 08:41:14;;;;;;;3.10;2.13;;;27.10;51.80;;;;;;4992909;28;20544;-45
2022/06/12 08:44:04;;;;;;;5.00;3.03;;;27.30;51.40;;;;;;4972856;28;20554;-45
2022/06/12 08:46:56;;;;;;;3.77;2.00;;;27.40;50.80;;;;;;4986289;28;20466;-45
2022/06/12 08:49:38;;;;;;;5.03;1.93;;;27.50;50.50;;;;;;4993623;28;20472;-45
2022/06/12 08:52:24;;;;;;;4.47;2.93;;;27.70;50.30;;;;;;4989298;28;20305;-45
2022/06/12 08:55:02;;;;;;;4.00;2.50;;;27.80;49.50;;;;;;4974214;28;20292;-45
2022/06/12 08:57:39;;;;;;;2.87;2.43;;;27.90;49.40;;;;;;4988873;28;20503;-45
2022/06/12 09:00:16;;;;;;;5.80;2.50;;;27.80;49.10;;;;;;4984986;28;20480;-45
2022/06/12 09:02:44;;;;;;;4.27;1.87;;;27.90;48.60;;;;;;4977354;28;20894;-44
2022/06/12 09:05:19;;;;;;;5.53;2.30;;;27.90;48.90;;;;;;4982229;28;20224;-46
2022/06/12 09:08:04;;;;;;;2.13;1.63;;;27.90;49.10;;;;;;4982404;28;20497;-45
2022/06/12 09:10:38;;;;;;;3.37;2.20;;;28.00;49.20;;;;;;4988740;28;20510;-45
2022/06/12 09:13:26;;;;;;;2.40;2.20;;;28.10;48.50;;;;;;4986681;28;20459;-45
2022/06/12 09:16:28;;;;;;;3.23;1.77;;;28.20;48.90;;;;;;4985755;28;20671;-45
2022/06/12 09:19:31;;;;;;;2.60;1.87;;;28.40;48.90;;;;;;4987579;28;20473;-45
2022/06/12 09:22:12;;;;;;;5.20;1.77;;;28.50;48.40;;;;;;4962154;28;20209;-45
2022/06/12 09:24:53;;;;;;;3.83;2.10;;;28.60;48.50;;;;;;4988950;28;20713;-45
2022/06/12 09:27:34;;;;;;;3.73;2.30;;;28.80;48.20;;;;;;4988472;28;20232;-45
2022/06/12 09:30:13;;;;;;;3.00;2.00;;;29.00;47.90;;;;;;4972850;28;20308;-45
2022/06/12 09:33:09;;;;;;;4.03;1.97;;;29.10;47.60;;;;;;4986488;28;20210;-45
2022/06/12 09:36:09;;;;;;;2.13;2.03;;;29.10;47.00;;;;;;4981218;28;20201;-45
2022/06/12 09:39:00;;;;;;;3.40;1.90;;;29.20;47.30;;;;;;4964863;28;20202;-45
2022/06/12 09:41:44;;;;;;;2.05;1.95;;;29.30;47.30;;;;;;4989564;28;20210;-46
2022/06/12 09:44:33;;;;;;;2.37;1.83;;;29.40;46.90;;;;;;4971969;28;20450;-45
2022/06/12 09:47:11;;;;;;;3.25;2.10;;;29.60;46.00;;;;;;4989361;28;20216;-45
2022/06/12 09:50:07;;;;;;;3.13;1.70;;;29.70;45.60;;;;;;4988731;28;20237;-45
2022/06/12 09:52:39;;;;;;;4.22;1.55;;;29.80;45.40;;;;;;4988607;28;20726;-45
2022/06/12 09:55:38;;;;;;;9.45;2.15;;;30.10;45.30;;;;;;4989946;28;20491;-45
2022/06/12 09:58:15;;;;;;;3.25;1.77;;;30.50;43.90;;;;;;4989713;28;20233;-45
2022/06/12 10:00:49;;;;;;;3.85;2.35;;;30.70;44.10;;;;;;4985061;28;20352;-45
2022/06/12 10:03:42;;;;;;;3.13;1.77;;;30.80;43.80;;;;;;4988592;28;20312;-45
2022/06/12 10:06:22;;;;;;;3.53;1.80;;;30.90;43.90;;;;;;4987920;28;21222;-45
2022/06/12 10:09:06;;;;;;;3.50;1.58;;;30.80;43.70;;;;;;4986238;28;20223;-45
2022/06/12 10:11:45;;;;;;;2.83;1.73;;;30.60;43.70;;;;;;4971954;28;20225;-45
2022/06/12 10:14:18;;;;;;;1.75;1.65;;;30.50;44.00;;;;;;4987120;28;20685;-45
2022/06/12 10:17:06;;;;;;;3.28;2.17;;;30.50;43.70;;;;;;4988410;28;20231;-45
2022/06/12 10:19:45;;;;;;;1.88;1.77;;;30.50;44.50;;;;;;4968788;28;20213;-45
2022/06/12 10:22:32;;;;;;;3.70;2.10;;;30.60;44.30;;;;;;4986280;28;20204;-46
2022/06/12 10:25:00;;;;;;;3.22;1.98;;;30.70;43.90;;;;;;4986247;28;20220;-45
2022/06/12 10:27:59;;;;;;;5.40;1.98;;;30.60;43.60;;;;;;4986614;28;20211;-45
2022/06/12 10:30:35;;;;;;;5.15;2.67;;;30.60;43.80;;;;;;4986576;28;20635;-45
2022/06/12 10:33:19;;;;;;;4.40;2.00;;;30.50;43.40;;;;;;4971869;28;20746;-45
2022/06/12 10:35:50;;;;;;;2.30;1.67;;;30.40;43.70;;;;;;4987343;28;20210;-45
2022/06/12 10:38:22;;;;;;;6.72;2.83;;;30.00;44.10;;;;;;4966010;28;20679;-45
2022/06/12 10:40:59;;;;;;;11.60;3.42;;;29.80;44.80;;;;;;4985392;28;20660;-45
2022/06/12 10:43:36;;;;;;;5.93;2.40;;;29.60;45.60;;;;;;4968511;28;20236;-45
2022/06/12 10:46:15;;;;;;;3.13;2.63;;;29.30;45.60;;;;;;4988429;28;20308;-45
2022/06/12 10:48:54;;;;;;;2.30;2.10;;;29.00;46.10;;;;;;4970596;28;20209;-46
2022/06/12 10:51:38;;;;;;;5.70;1.70;;;28.80;46.20;;;;;;4970644;28;20228;-45
2022/06/12 10:54:15;;;;;;;4.03;2.30;;;28.60;47.20;;;;;;4986309;28;20202;-45
2022/06/12 10:56:50;;;;;;;3.07;2.03;;;28.50;47.00;;;;;;4984303;28;20655;-45
2022/06/12 10:59:35;;;;;;;4.00;2.43;;;28.40;47.30;;;;;;4985489;28;20215;-45
2022/06/12 11:02:17;;;;;;;4.30;2.27;;;28.30;48.20;;;;;;4987200;28;20216;-45
2022/06/12 11:05:29;;;;;;;3.40;2.03;;;28.20;48.20;;;;;;4985614;28;20260;-44
2022/06/12 11:08:03;;;;;;;3.47;2.57;;;28.00;48.30;;;;;;4951910;28;20300;-46
2022/06/12 11:10:40;;;;;;;2.80;2.13;;;27.80;47.40;;;;;;4970107;28;20231;-46
2022/06/12 11:13:07;;;;;;;6.10;2.50;;;27.60;48.10;;;;;;4965353;28;20206;-46
2022/06/12 11:15:34;;;;;;;3.00;2.20;;;27.50;48.90;;;;;;4986817;28;20966;-45
2022/06/12 11:18:24;;;;;;;1.93;1.73;;;27.40;48.20;;;;;;4968620;28;20344;-46
2022/06/12 11:21:14;;;;;;;4.50;2.37;;;27.30;48.80;;;;;;4968526;28;20809;-45
2022/06/12 11:24:05;;;;;;;1.93;1.73;;;27.20;48.80;;;;;;4946574;28;20475;-45
2022/06/12 11:26:44;;;;;;;2.80;1.93;;;27.10;49.70;;;;;;4969506;28;20691;-46
2022/06/12 11:29:31;;;;;;;2.63;1.90;;;27.10;49.20;;;;;;4985879;28;20543;-45
2022/06/12 11:32:26;;;;;;;2.63;2.20;;;27.10;48.70;;;;;;4987588;28;20488;-45
2022/06/12 11:34:56;;;;;;;2.53;2.07;;;27.00;48.80;;;;;;4985549;28;20471;-46
2022/06/12 11:37:41;;;;;;;2.63;1.73;;;26.90;48.90;;;;;;4986192;28;20474;-45
2022/06/12 11:41:01;;;;;;;3.97;2.67;;;26.90;48.80;;;;;;4986216;28;20456;-44
2022/06/12 11:43:40;;;;;;;3.10;2.00;;;26.90;50.00;;;;;;4945189;28;20946;-46
2022/06/12 11:46:34;;;;;;;2.23;2.03;;;27.00;49.90;;;;;;4981029;28;20449;-45
2022/06/12 11:49:01;;;;;;;4.70;2.00;;;27.10;49.30;;;;;;4987333;28;20444;-45
2022/06/12 11:51:42;;;;;;;4.67;1.93;;;27.20;49.20;;;;;;4984073;28;20492;-45
2022/06/12 11:54:34;;;;;;;3.43;2.13;;;27.20;48.80;;;;;;4985020;28;20460;-46
2022/06/12 11:57:36;;;;;;;3.13;2.50;;;27.10;48.10;;;;;;4964306;28;20457;-46
2022/06/12 12:00:22;;;;;;;4.83;2.20;;;27.10;48.40;;;;;;4966019;28;20480;-46
2022/06/12 12:03:10;;;;;;;3.80;1.90;;;27.00;48.80;;;;;;4986321;28;20464;-45
2022/06/12 12:06:04;;;;;;;1.67;1.57;;;27.00;48.60;;;;;;4987255;28;20460;-46
2022/06/12 12:09:02;;;;;;;3.20;2.07;;;26.90;48.20;;;;;;4954725;28;20479;-46
2022/06/12 12:11:39;;;;;;;3.13;1.67;;;27.00;47.50;;;;;;4982915;28;20860;-46
2022/06/12 12:14:09;;;;;;;2.13;1.87;;;27.00;47.20;;;;;;4964242;28;20889;-46
2022/06/12 12:16:41;;;;;;;2.57;1.80;;;27.00;47.30;;;;;;4984498;28;20468;-45
2022/06/12 12:19:23;;;;;;;1.77;1.63;;;27.00;48.00;;;;;;4984656;28;20240;-45
2022/06/12 12:21:55;;;;;;;2.77;1.50;;;27.10;47.40;;;;;;4982875;28;20464;-45
2022/06/12 12:24:35;;;;;;;2.23;1.40;;;27.20;47.70;;;;;;4981074;28;20568;-46
2022/06/12 12:27:05;;;;;;;2.00;1.70;;;27.20;45.40;;;;;;4963440;28;20464;-45
2022/06/12 12:29:36;;;;;;;3.20;1.60;;;27.20;46.10;;;;;;4970745;28;20566;-45
2022/06/12 12:32:05;;;;;;;4.60;2.00;;;27.20;46.80;;;;;;4984862;28;20496;-45
2022/06/12 12:34:33;;;;;;;2.23;1.50;;;27.20;46.50;;;;;;4989656;28;20220;-45
2022/06/12 12:42:41;;;;;;;4.30;1.70;;;27.30;45.80;;;;;;4990886;28;20468;-45
2022/06/12 12:45:23;;;;;;;2.37;1.47;;;27.30;45.30;;;;;;4988364;28;20818;-45
2022/06/12 12:48:01;;;;;;;2.93;1.47;;;27.30;44.80;;;;;;4988343;28;20774;-45
2022/06/12 12:50:29;;;;;;;3.67;1.93;;;27.30;45.40;;;;;;4968719;28;20490;-46
2022/06/12 12:52:57;;;;;;;2.23;1.73;;;27.30;45.80;;;;;;4986033;28;20905;-46
2022/06/12 12:55:26;;;;;;;2.33;1.80;;;27.30;46.10;;;;;;4989564;28;20456;-46
2022/06/12 12:57:55;;;;;;;2.30;2.10;;;27.30;44.60;;;;;;4987974;28;20209;-46
2022/06/12 13:00:33;;;;;;;4.07;1.70;;;27.30;44.80;;;;;;4987191;28;20480;-47
2022/06/12 13:03:00;;;;;;;3.33;2.23;;;27.40;45.20;;;;;;4983138;28;20476;-46
2022/06/12 13:05:46;;;;;;;1.50;1.33;;;27.50;44.50;;;;;;4988582;28;20523;-46
2022/06/12 13:08:28;;;;;;;1.93;1.50;;;27.50;44.30;;;;;;4982418;28;20971;-46
2022/06/12 13:11:26;;;;;;;1.50;1.40;;;27.60;44.00;;;;;;4972410;28;21036;-45
2022/06/12 13:14:06;;;;;;;1.80;1.60;;;27.60;44.20;;;;;;4978871;28;20543;-46
2022/06/12 13:16:35;;;;;;;2.67;1.60;;;27.70;43.90;;;;;;4984317;28;20212;-45
2022/06/12 13:19:12;;;;;;;2.90;2.33;;;27.70;44.80;;;;;;4986178;28;20694;-45
2022/06/12 13:21:45;;;;;;;1.80;1.37;;;27.70;43.70;;;;;;4986185;28;20527;-45
2022/06/12 13:24:30;;;;;;;3.37;1.67;;;27.80;44.20;;;;;;4984819;28;20556;-46
2022/06/12 13:26:58;;;;;;;3.43;1.50;;;27.80;43.80;;;;;;4985325;28;20478;-45
2022/06/12 13:29:26;;;;;;;1.43;1.30;;;27.80;43.50;;;;;;4972100;28;20466;-45
2022/06/12 13:32:06;;;;;;;2.43;1.47;;;27.90;42.90;;;;;;4984459;28;20516;-45
2022/06/12 13:34:33;;;;;;;1.90;1.53;;;27.90;42.80;;;;;;4990013;28;20462;-46
2022/06/12 13:37:04;;;;;;;1.83;1.70;;;27.90;42.90;;;;;;4985115;28;20460;-46
2022/06/12 13:39:45;;;;;;;3.10;1.90;;;27.90;42.40;;;;;;4986670;28;20456;-45
2022/06/12 13:42:15;;;;;;;1.27;1.07;;;27.80;43.50;;;;;;4971826;28;20575;-46
2022/06/12 13:44:45;;;;;;;1.50;1.40;;;27.80;42.20;;;;;;4971146;28;21116;-46
2022/06/12 13:47:18;;;;;;;2.47;1.70;;;27.90;42.30;;;;;;4987469;28;20218;-46